Time;durP1;ratioP1;P1;durP2;ratioP2;P2;SDS_P1;SDS_P2;PMS_P1;PMS_P2;Temp;Humidity;BMP_temperature;BMP_pressure;BME280_temperature;BME280_humidity;BME280_pressure;Samples;Min_cycle;Max_cycle;Signal;HPM_P1;HPM_P2
2020/12/17 00:00:27;;;;;;;13.10;7.42;;;;;;;3.20;70.69;101566.91;1754649;80;21384;-55
2020/12/17 00:02:55;;;;;;;18.73;7.92;;;;;;;3.26;70.62;101572.77;1752813;80;21797;-55
2020/12/17 00:05:22;;;;;;;12.63;6.40;;;;;;;3.29;70.50;101567.91;1754326;80;21180;-56
2020/12/17 00:07:50;;;;;;;15.43;8.20;;;;;;;3.26;70.60;101568.00;1753813;80;21247;-55
2020/12/17 00:10:17;;;;;;;16.55;8.18;;;;;;;3.20;70.70;101561.25;1755579;80;21172;-55
2020/12/17 00:12:46;;;;;;;15.93;8.43;;;;;;;3.15;70.84;101567.88;1754729;80;21372;-54
2020/12/17 00:15:16;;;;;;;14.20;7.53;;;;;;;3.08;70.99;101564.22;1755053;80;21184;-54
2020/12/17 00:17:48;;;;;;;14.28;8.53;;;;;;;3.04;71.11;101563.89;1756838;80;21124;-55
2020/12/17 00:20:19;;;;;;;18.35;7.95;;;;;;;2.95;71.27;101564.56;1756386;80;21148;-55
2020/12/17 00:22:46;;;;;;;13.85;7.05;;;;;;;2.91;71.42;101564.27;1754792;80;21745;-55
2020/12/17 00:25:18;;;;;;;12.03;6.72;;;;;;;2.94;71.37;101551.19;1755561;80;21370;-56
2020/12/17 00:27:46;;;;;;;16.52;8.03;;;;;;;3.02;71.36;101551.39;1756364;80;21195;-55
2020/12/17 00:30:15;;;;;;;12.53;6.67;;;;;;;3.03;71.34;101553.95;1754772;80;21173;-55
2020/12/17 00:32:45;;;;;;;13.10;6.37;;;;;;;3.00;71.42;101553.20;1756157;80;21236;-55
2020/12/17 00:35:14;;;;;;;14.25;7.75;;;;;;;2.95;71.55;101553.33;1754060;80;21148;-55
2020/12/17 00:37:42;;;;;;;14.60;7.60;;;;;;;2.89;71.70;101558.69;1756723;80;21216;-55
2020/12/17 00:40:14;;;;;;;14.73;7.65;;;;;;;2.83;71.81;101549.80;1754097;80;21195;-55
2020/12/17 00:42:43;;;;;;;18.87;8.33;;;;;;;2.78;71.91;101550.76;1754639;80;21228;-55
2020/12/17 00:45:12;;;;;;;13.98;6.78;;;;;;;2.81;71.96;101555.46;1755436;80;21196;-55
2020/12/17 00:47:39;;;;;;;22.65;7.50;;;;;;;2.93;71.76;101557.73;1753787;80;21195;-54
2020/12/17 00:50:09;;;;;;;12.33;6.75;;;;;;;3.01;71.59;101559.66;1753546;80;22230;-55
2020/12/17 00:52:37;;;;;;;11.28;6.20;;;;;;;3.07;71.55;101555.55;1756447;80;21516;-55
2020/12/17 00:55:05;;;;;;;13.98;7.33;;;;;;;3.09;71.51;101557.68;1754784;80;21239;-55
2020/12/17 00:57:34;;;;;;;14.13;7.47;;;;;;;3.10;71.49;101555.46;1755499;80;21752;-55
2020/12/17 01:00:02;;;;;;;11.83;6.10;;;;;;;3.11;71.43;101553.27;1753652;80;21148;-55
2020/12/17 01:02:29;;;;;;;12.25;6.37;;;;;;;3.08;71.40;101549.46;1755799;80;21275;-55
2020/12/17 01:04:57;;;;;;;13.58;6.95;;;;;;;3.05;71.39;101555.21;1754611;80;22412;-54
2020/12/17 01:07:24;;;;;;;12.20;6.55;;;;;;;3.01;71.45;101554.45;1755535;79;21165;-55
2020/12/17 01:09:52;;;;;;;11.40;6.45;;;;;;;3.06;71.46;101552.56;1754302;80;21239;-55
2020/12/17 01:12:20;;;;;;;11.43;6.58;;;;;;;3.21;71.24;101551.69;1756072;80;21530;-55
2020/12/17 01:17:17;;;;;;;12.68;5.83;;;;;;;3.33;70.83;101544.82;1868021;74;22072;-56
2020/12/17 01:19:44;;;;;;;13.35;7.47;;;;;;;3.26;70.84;101547.19;1867443;75;21190;-56
2020/12/17 01:22:12;;;;;;;13.08;5.70;;;;;;;3.22;70.97;101549.49;1864656;75;21413;-55
2020/12/17 01:24:39;;;;;;;18.25;6.85;;;;;;;3.18;71.00;101546.56;1863469;75;21850;-56
2020/12/17 01:27:07;;;;;;;9.68;5.47;;;;;;;3.10;71.04;101542.92;1864958;75;21175;-55
2020/12/17 01:29:34;;;;;;;10.90;5.72;;;;;;;3.02;71.18;101537.09;1864393;75;21645;-56
2020/12/17 01:32:02;;;;;;;13.05;5.92;;;;;;;2.98;71.29;101532.44;1865968;75;21775;-59
2020/12/17 01:34:29;;;;;;;16.32;5.87;;;;;;;3.04;71.21;101531.39;1864378;75;22242;-56
2020/12/17 01:36:57;;;;;;;11.12;5.40;;;;;;;3.08;71.15;101533.02;1865417;75;22590;-56
2020/12/17 01:39:25;;;;;;;11.95;6.15;;;;;;;3.09;71.14;101523.88;1865329;75;21159;-55
2020/12/17 01:41:53;;;;;;;12.30;5.08;;;;;;;3.04;71.22;101527.03;1864834;75;21190;-56
2020/12/17 01:44:22;;;;;;;10.82;4.92;;;;;;;2.97;71.34;101520.32;1838713;75;21525;-56
2020/12/17 01:46:50;;;;;;;11.75;5.55;;;;;;;2.89;71.53;101514.50;1864630;75;21360;-55
2020/12/17 01:49:22;;;;;;;14.23;6.45;;;;;;;2.84;71.68;101512.05;1865815;75;21159;-55
2020/12/17 01:51:50;;;;;;;10.50;5.65;;;;;;;2.79;71.81;101513.48;1863005;75;21771;-55
2020/12/17 01:54:18;;;;;;;11.35;4.83;;;;;;;2.80;71.89;101505.23;1863935;75;21152;-55
2020/12/17 01:56:48;;;;;;;10.82;6.25;;;;;;;2.87;71.70;101509.34;1863924;75;21119;-55
2020/12/17 01:59:20;;;;;;;13.48;7.03;;;;;;;2.94;71.62;101508.28;1862963;75;21167;-55
2020/12/17 02:01:49;;;;;;;12.65;4.72;;;;;;;3.00;71.58;101516.80;1865363;75;21155;-55
2020/12/17 02:04:19;;;;;;;11.00;5.25;;;;;;;3.00;71.59;101515.49;1863731;75;21574;-55
2020/12/17 02:06:47;;;;;;;9.75;5.50;;;;;;;3.00;71.59;101524.13;1864889;75;21123;-55
2020/12/17 02:09:19;;;;;;;10.45;5.10;;;;;;;2.99;71.57;101518.52;1864765;75;21443;-54
2020/12/17 02:11:57;;;;;;;13.88;6.03;;;;;;;3.00;71.47;101521.99;1863490;75;21636;-54
2020/12/17 02:14:25;;;;;;;12.45;4.95;;;;;;;2.98;71.52;101522.03;1865595;75;21159;-55
2020/12/17 02:16:53;;;;;;;12.25;5.97;;;;;;;3.00;71.45;101522.83;1867010;75;21596;-55
2020/12/17 02:19:22;;;;;;;10.50;5.25;;;;;;;3.11;71.18;101533.77;1867553;75;21179;-55
2020/12/17 02:21:49;;;;;;;10.82;4.62;;;;;;;3.20;71.01;101533.09;1867475;75;21111;-55
2020/12/17 02:24:22;;;;;;;12.18;5.08;;;;;;;3.25;70.83;101539.00;1867121;75;22767;-55
2020/12/17 02:27:07;;;;;;;11.08;5.50;;;;;;;3.21;70.85;101536.08;1821888;75;22781;-55
2020/12/17 02:29:34;;;;;;;11.75;4.35;;;;;;;3.21;70.85;101536.08;1802422;79;21167;-55
2020/12/17 02:32:02;;;;;;;12.95;6.08;;;;;;;3.19;70.79;101533.52;1799712;78;21355;-55
2020/12/17 02:34:29;;;;;;;12.50;5.92;;;;;;;3.16;70.82;101531.87;1801806;79;21183;-55
2020/12/17 02:36:57;;;;;;;10.65;5.05;;;;;;;3.12;70.90;101522.91;1800073;79;21144;-55
2020/12/17 02:39:24;;;;;;;8.80;4.08;;;;;;;3.15;70.93;101528.02;1799259;79;21638;-55
2020/12/17 02:41:52;;;;;;;9.75;5.20;;;;;;;3.23;70.72;101524.73;1801494;78;21124;-55
2020/12/17 02:44:20;;;;;;;9.48;5.58;;;;;;;3.30;70.55;101526.23;1802350;78;23394;-55
2020/12/17 02:46:47;;;;;;;9.15;5.10;;;;;;;3.32;70.50;101528.34;1801917;78;21056;-56
2020/12/17 02:49:15;;;;;;;10.08;5.87;;;;;;;3.31;70.47;101529.69;1800008;78;21168;-55
2020/12/17 02:51:42;;;;;;;10.90;5.85;;;;;;;3.27;70.48;101531.99;1801184;78;21203;-55
2020/12/17 02:54:10;;;;;;;8.18;4.92;;;;;;;3.21;70.54;101537.38;1799732;79;22599;-55
2020/12/17 02:56:37;;;;;;;10.25;4.95;;;;;;;3.15;70.67;101535.83;1802303;78;21207;-55
2020/12/17 02:59:05;;;;;;;11.08;6.35;;;;;;;3.09;70.76;101532.97;1798998;79;21242;-55
2020/12/17 03:01:34;;;;;;;10.98;6.03;;;;;;;3.06;70.86;101534.78;1801319;78;21623;-55
2020/12/17 03:04:02;;;;;;;9.68;3.95;;;;;;;3.05;70.92;101538.30;1799266;78;21195;-55
2020/12/17 03:06:29;;;;;;;13.43;5.92;;;;;;;3.12;70.77;101545.86;1800839;78;21160;-55
2020/12/17 03:08:56;;;;;;;8.53;4.80;;;;;;;3.18;70.63;101543.54;1801776;77;22058;-55
2020/12/17 03:11:24;;;;;;;11.25;5.30;;;;;;;3.22;70.56;101545.13;1800957;78;21207;-55
2020/12/17 03:13:51;;;;;;;10.43;5.45;;;;;;;3.21;70.62;101547.35;1798395;78;21179;-55
2020/12/17 03:16:19;;;;;;;9.83;5.03;;;;;;;3.19;70.66;101543.92;1798381;78;21164;-55
2020/12/17 03:18:47;;;;;;;14.05;5.90;;;;;;;3.18;70.71;101546.56;1798037;78;21179;-55
2020/12/17 03:21:17;;;;;;;10.03;4.75;;;;;;;3.14;70.77;101550.59;1799562;78;21358;-55
2020/12/17 03:23:44;;;;;;;9.95;5.20;;;;;;;3.11;70.81;101553.27;1799070;79;21211;-56
2020/12/17 03:26:11;;;;;;;11.50;4.28;;;;;;;3.11;70.81;101559.78;1774717;78;21132;-55
2020/12/17 03:28:39;;;;;;;8.28;4.72;;;;;;;3.20;70.68;101557.34;1805101;78;21168;-55
2020/12/17 03:31:06;;;;;;;10.50;4.47;;;;;;;3.25;70.55;101559.81;1804743;78;21170;-55
2020/12/17 03:33:34;;;;;;;9.95;4.58;;;;;;;3.27;70.55;101563.20;1802814;78;21349;-55
2020/12/17 03:36:01;;;;;;;11.70;4.45;;;;;;;3.26;70.66;101566.27;1805763;78;21194;-55
2020/12/17 03:38:30;;;;;;;9.38;5.10;;;;;;;3.25;70.70;101563.71;1801278;78;21250;-55
2020/12/17 03:40:58;;;;;;;11.03;5.03;;;;;;;3.22;70.83;101567.70;1804752;78;21166;-54
2020/12/17 03:43:26;;;;;;;11.48;4.62;;;;;;;3.21;70.87;101574.66;1804684;78;21163;-55
2020/12/17 03:45:53;;;;;;;13.35;6.30;;;;;;;3.20;70.90;101572.11;1805219;78;22271;-55
2020/12/17 03:48:20;;;;;;;10.43;5.22;;;;;;;3.19;70.91;101576.89;1803555;78;21194;-55
2020/12/17 03:50:48;;;;;;;10.30;4.95;;;;;;;3.18;70.89;101577.35;1798818;79;22252;-55
2020/12/17 03:53:16;;;;;;;11.43;5.58;;;;;;;3.26;70.72;101579.70;1799377;79;21198;-54
2020/12/17 03:55:45;;;;;;;8.65;4.55;;;;;;;3.34;70.61;101579.87;1798087;79;21183;-55
2020/12/17 03:58:12;;;;;;;8.38;4.37;;;;;;;3.40;70.47;101580.61;1799053;79;21796;-55
2020/12/17 04:00:40;;;;;;;8.78;4.65;;;;;;;3.36;70.53;101582.42;1797535;79;21191;-55
2020/12/17 04:03:07;;;;;;;9.28;4.50;;;;;;;3.31;70.63;101575.21;1798093;79;21667;-54
2020/12/17 04:05:35;;;;;;;8.70;4.42;;;;;;;3.27;70.79;101575.76;1799283;77;21716;-55
2020/12/17 04:08:02;;;;;;;9.30;4.92;;;;;;;3.22;70.91;101578.11;1797729;79;21769;-55
2020/12/17 04:10:30;;;;;;;7.37;4.42;;;;;;;3.20;71.05;101576.85;1795823;79;21198;-54
2020/12/17 04:12:58;;;;;;;12.13;5.55;;;;;;;3.17;71.16;101573.03;1796953;79;21370;-54
2020/12/17 04:15:26;;;;;;;9.68;4.45;;;;;;;3.19;71.14;101578.19;1799852;79;21137;-55
2020/12/17 04:17:55;;;;;;;10.50;4.33;;;;;;;3.30;70.98;101578.73;1797161;79;22596;-55
2020/12/17 04:20:22;;;;;;;10.10;5.03;;;;;;;3.37;70.83;101580.70;1796976;79;21598;-55
2020/12/17 04:22:50;;;;;;;10.78;4.65;;;;;;;3.38;70.85;101582.37;1799817;79;21191;-54
2020/12/17 04:25:18;;;;;;;9.20;5.08;;;;;;;3.37;70.95;101581.53;1798965;79;21425;-55
2020/12/17 04:27:45;;;;;;;9.05;5.28;;;;;;;3.37;70.97;101584.14;1798114;77;21168;-56
2020/12/17 04:30:14;;;;;;;9.58;4.67;;;;;;;3.37;71.02;101591.10;1799240;79;21591;-55
2020/12/17 04:32:42;;;;;;;10.70;5.58;;;;;;;3.35;71.07;101582.88;1797631;77;21176;-56
2020/12/17 04:35:10;;;;;;;10.28;5.62;;;;;;;3.33;71.12;101586.45;1796512;79;21376;-55
2020/12/17 04:37:38;;;;;;;12.10;6.05;;;;;;;3.27;71.17;101584.86;1798969;79;21243;-55
2020/12/17 04:40:05;;;;;;;9.83;5.42;;;;;;;3.24;71.30;101590.61;1798419;78;21160;-55
2020/12/17 04:42:32;;;;;;;13.88;6.75;;;;;;;3.28;71.26;101590.48;1798069;77;21199;-55
2020/12/17 04:45:01;;;;;;;9.93;5.20;;;;;;;3.39;71.10;101588.00;1797741;77;21748;-55
2020/12/17 04:47:31;;;;;;;10.85;5.17;;;;;;;3.48;70.90;101593.77;1795859;79;21172;-56
2020/12/17 04:50:07;;;;;;;9.93;5.65;;;;;;;3.58;70.81;101598.67;1797342;79;21242;-55
2020/12/17 04:52:38;;;;;;;11.28;6.00;;;;;;;3.62;70.76;101592.03;1799090;79;21473;-56
2020/12/17 04:55:10;;;;;;;12.90;5.58;;;;;;;3.65;70.72;101594.55;1799766;79;21124;-55
2020/12/17 04:57:45;;;;;;;8.55;4.58;;;;;;;3.66;70.69;101589.72;1797667;79;21653;-60
2020/12/17 05:00:16;;;;;;;12.25;7.03;;;;;;;3.65;70.67;101589.34;1794927;79;21345;-54
2020/12/17 05:02:46;;;;;;;10.40;6.22;;;;;;;3.64;70.68;101593.29;1798826;79;21235;-54
2020/12/17 05:05:15;;;;;;;10.53;6.05;;;;;;;3.62;70.63;101591.19;1798359;79;21500;-54
2020/12/17 05:07:43;;;;;;;9.25;5.08;;;;;;;3.60;70.68;101587.77;1799327;79;21756;-55
2020/12/17 05:10:10;;;;;;;14.00;6.12;;;;;;;3.57;70.66;101584.82;1797694;79;21196;-54
2020/12/17 05:12:38;;;;;;;9.80;6.03;;;;;;;3.60;70.59;101588.63;1801407;79;23498;-54
2020/12/17 05:15:07;;;;;;;11.28;6.42;;;;;;;3.68;70.40;101591.84;1799022;79;21100;-54
2020/12/17 05:17:34;;;;;;;10.53;5.55;;;;;;;3.74;70.27;101596.00;1798320;79;21610;-53
2020/12/17 05:20:02;;;;;;;12.55;5.95;;;;;;;3.77;70.29;101592.00;1800291;77;21171;-53
2020/12/17 05:24:41;;;;;;;13.65;7.03;;;;;;;3.81;70.31;101590.98;1869962;74;22668;-54
2020/12/17 05:27:09;;;;;;;11.28;7.25;;;;;;;3.74;70.33;101599.91;1811478;76;21198;-55
2020/12/17 05:29:40;;;;;;;14.20;6.92;;;;;;;3.70;70.39;101597.01;1813094;77;23301;-55
2020/12/17 05:32:09;;;;;;;10.58;5.35;;;;;;;3.66;70.43;101597.98;1771015;78;22491;-54
2020/12/17 05:34:37;;;;;;;10.90;5.10;;;;;;;3.54;70.57;101597.47;1806366;78;21186;-54
2020/12/17 05:37:08;;;;;;;15.28;6.47;;;;;;;3.50;70.65;101588.06;1793264;78;21724;-53
2020/12/17 05:39:43;;;;;;;10.08;5.33;;;;;;;3.58;70.60;101596.95;1766518;78;21637;-53
2020/12/17 05:42:13;;;;;;;13.32;6.42;;;;;;;3.63;70.53;101604.16;1805778;78;21391;-53
2020/12/17 05:44:41;;;;;;;12.50;5.40;;;;;;;3.66;70.54;101612.31;1806655;78;21761;-53
2020/12/17 05:47:14;;;;;;;9.90;4.62;;;;;;;3.65;70.52;101604.12;1803483;78;21190;-54
2020/12/17 05:49:41;;;;;;;11.63;5.85;;;;;;;3.62;70.57;101612.02;1752918;78;21196;-53
2020/12/17 05:52:20;;;;;;;11.30;6.45;;;;;;;3.57;70.63;101615.21;1801107;78;22667;-53
2020/12/17 05:55:00;;;;;;;14.80;6.83;;;;;;;3.49;70.74;101616.28;1807992;78;22721;-54
2020/12/17 05:57:28;;;;;;;12.88;6.83;;;;;;;3.47;70.84;101623.28;1768879;78;21242;-54
2020/12/17 06:00:05;;;;;;;11.63;6.78;;;;;;;3.43;70.94;101620.81;1772409;78;21531;-55
2020/12/17 06:02:35;;;;;;;12.93;6.08;;;;;;;3.45;70.90;101626.84;1778232;78;21602;-54
2020/12/17 06:05:13;;;;;;;11.63;6.12;;;;;;;3.57;70.68;101626.92;1797663;77;21227;-53
2020/12/17 06:07:47;;;;;;;12.20;6.15;;;;;;;3.66;70.53;101629.23;1808012;78;22088;-55
2020/12/17 06:10:27;;;;;;;12.25;5.55;;;;;;;3.72;70.42;101635.09;1799615;78;21270;-54
2020/12/17 06:12:58;;;;;;;15.60;7.65;;;;;;;3.74;70.37;101637.65;1764592;78;22249;-54
2020/12/17 06:15:30;;;;;;;9.73;5.25;;;;;;;3.71;70.38;101639.05;1797914;78;21230;-53
2020/12/17 06:18:02;;;;;;;10.40;5.87;;;;;;;3.69;70.46;101635.64;1769020;79;21758;-54
2020/12/17 06:20:54;;;;;;;13.07;7.40;;;;;;;3.67;70.48;101634.84;1808758;78;21380;-54
2020/12/17 06:23:21;;;;;;;11.12;6.08;;;;;;;3.64;70.49;101637.54;1808211;78;21170;-54
2020/12/17 06:25:49;;;;;;;13.90;6.17;;;;;;;3.62;70.70;101644.09;1797670;77;21163;-54
2020/12/17 06:28:29;;;;;;;10.93;5.87;;;;;;;3.62;70.92;101649.30;1770805;78;21228;-53
2020/12/17 06:30:57;;;;;;;9.70;5.05;;;;;;;3.68;70.73;101646.94;1766745;78;21234;-54
2020/12/17 06:33:25;;;;;;;13.93;6.90;;;;;;;3.82;70.41;101649.98;1769381;78;23703;-53
2020/12/17 06:35:55;;;;;;;11.15;5.95;;;;;;;3.91;70.11;101647.53;1767595;78;21643;-54
2020/12/17 06:38:26;;;;;;;8.18;5.03;;;;;;;3.96;70.04;101650.00;1772539;78;21115;-53
2020/12/17 06:40:54;;;;;;;12.28;5.83;;;;;;;3.96;70.04;101652.59;1771879;78;21151;-53
2020/12/17 06:43:33;;;;;;;16.35;6.00;;;;;;;3.96;70.05;101653.91;1770239;79;21188;-54
2020/12/17 06:46:01;;;;;;;11.03;5.95;;;;;;;3.95;70.04;101654.79;1769932;78;23276;-53
2020/12/17 06:48:38;;;;;;;10.95;5.53;;;;;;;3.93;70.00;101654.84;1769658;78;22603;-53
2020/12/17 06:51:38;;;;;;;11.43;6.78;;;;;;;3.86;70.05;101659.38;1770218;78;21203;-52
2020/12/17 07:05:00;;;;;;;11.57;5.45;;;;;;;3.97;70.01;101655.59;1863405;75;22714;-54
2020/12/17 07:07:28;;;;;;;11.65;5.00;;;;;;;3.96;70.14;101660.41;1859473;76;21162;-54
2020/12/17 07:09:56;;;;;;;14.47;7.05;;;;;;;3.99;70.16;101664.23;1859946;74;21358;-55
2020/12/17 07:12:40;;;;;;;10.20;6.22;;;;;;;4.01;70.11;101665.86;1859530;76;21823;-55
2020/12/17 07:15:30;;;;;;;14.75;6.67;;;;;;;4.04;69.95;101667.07;1859917;76;21439;-53
2020/12/17 07:18:24;;;;;;;15.30;7.50;;;;;;;4.03;69.73;101666.66;1861525;76;21154;-51
2020/12/17 07:21:05;;;;;;;11.80;6.78;;;;;;;3.98;69.78;101669.02;1859305;76;21167;-54
2020/12/17 07:41:26;;;;;;;19.05;8.98;;;;;;;3.48;70.96;101686.59;1747454;80;22842;-74
2020/12/17 07:43:54;;;;;;;16.07;8.88;;;;;;;3.52;70.82;101689.06;1729350;81;21202;-73
2020/12/17 07:46:39;;;;;;;16.32;9.00;;;;;;;3.68;70.62;101692.50;1732109;81;21456;-74
2020/12/17 07:49:25;;;;;;;16.25;8.73;;;;;;;3.86;70.44;101692.39;1792855;77;22829;-53
2020/12/17 07:51:54;;;;;;;16.15;8.18;;;;;;;3.94;70.69;101699.98;1767747;79;21117;-55
2020/12/17 07:54:21;;;;;;;14.03;9.13;;;;;;;3.99;70.31;101698.08;1732554;80;21350;-55
2020/12/17 07:56:51;;;;;;;15.03;8.68;;;;;;;4.06;70.09;101704.80;1713461;81;21583;-55
2020/12/17 07:59:18;;;;;;;16.62;6.92;;;;;;;4.10;70.00;101706.39;1731517;80;21788;-56
2020/12/17 08:01:46;;;;;;;11.78;7.28;;;;;;;4.12;69.81;101700.70;1731651;80;21227;-54
2020/12/17 08:04:14;;;;;;;12.75;7.62;;;;;;;4.12;69.78;101703.73;1731862;80;21128;-54
2020/12/17 08:07:08;;;;;;;13.95;7.70;;;;;;;4.11;69.75;101693.78;1730791;80;21284;-54
2020/12/17 08:09:36;;;;;;;15.70;8.00;;;;;;;4.11;69.64;101695.08;1733149;80;21693;-66
2020/12/17 08:12:03;;;;;;;15.68;8.38;;;;;;;4.13;69.44;101695.88;1704276;82;21168;-63
2020/12/17 08:14:31;;;;;;;13.75;7.95;;;;;;;4.18;69.17;101690.06;1704454;81;21242;-63
2020/12/17 08:17:06;;;;;;;17.17;7.85;;;;;;;4.31;68.86;101694.44;1685816;82;21730;-65
2020/12/17 08:19:34;;;;;;;18.25;8.98;;;;;;;4.42;68.58;101697.98;1732936;80;23194;-68
2020/12/17 08:22:02;;;;;;;10.72;6.87;;;;;;;4.46;68.38;101705.66;1714503;82;21013;-67
2020/12/17 08:24:29;;;;;;;13.65;7.72;;;;;;;4.48;68.53;101704.30;1715622;82;21670;-67
2020/12/17 08:26:56;;;;;;;15.25;8.18;;;;;;;4.50;68.62;101699.88;1696751;82;21218;-67
2020/12/17 08:29:24;;;;;;;16.67;8.15;;;;;;;4.51;68.62;101708.58;1719348;81;21202;-68
2020/12/17 08:31:52;;;;;;;16.27;7.53;;;;;;;4.51;68.61;101705.50;1717301;81;22314;-68
2020/12/17 08:34:19;;;;;;;16.40;8.45;;;;;;;4.50;68.68;101705.09;1690979;81;21939;-70
2020/12/17 08:36:47;;;;;;;13.93;8.75;;;;;;;4.51;68.67;101708.11;1732784;80;21649;-66
2020/12/17 08:39:16;;;;;;;14.83;9.08;;;;;;;4.50;68.74;101712.91;1733747;81;21191;-66
2020/12/17 08:41:52;;;;;;;15.38;7.95;;;;;;;4.53;68.72;101714.58;1716978;81;21265;-67
2020/12/17 08:44:32;;;;;;;16.32;9.13;;;;;;;4.57;68.57;101710.52;1699441;82;21674;-69
2020/12/17 08:47:02;;;;;;;14.20;8.55;;;;;;;4.70;68.27;101714.84;1715056;81;21240;-66
2020/12/17 08:49:30;;;;;;;15.28;8.95;;;;;;;4.80;68.11;101707.56;1708550;83;21219;-67
2020/12/17 08:52:02;;;;;;;17.87;9.18;;;;;;;4.88;67.80;101713.38;1758799;80;21235;-66
2020/12/17 08:54:35;;;;;;;21.07;9.73;;;;;;;4.87;67.67;101719.95;1760634;78;21261;-67
2020/12/17 08:58:09;;;;;;;15.93;9.73;;;;;;;4.86;67.70;101717.80;1793092;78;22525;-73
2020/12/17 09:00:36;;;;;;;24.35;13.65;;;;;;;4.78;67.65;101723.27;1764164;80;21727;-73
2020/12/17 09:04:26;;;;;;;21.30;11.25;;;;;;;4.77;67.63;101712.42;1791359;77;22173;-73
2020/12/17 09:07:00;;;;;;;17.02;11.15;;;;;;;4.72;67.59;101722.63;1751958;80;21208;-73
2020/12/17 09:09:33;;;;;;;21.60;11.88;;;;;;;4.70;67.57;101716.61;1752708;80;21232;-73
2020/12/17 09:12:03;;;;;;;20.15;9.48;;;;;;;4.65;67.70;101712.39;1750557;81;21179;-75
2020/12/17 09:14:33;;;;;;;16.87;8.33;;;;;;;4.62;67.85;101719.05;1754942;81;21203;-75
2020/12/17 09:17:10;;;;;;;15.70;8.48;;;;;;;4.59;67.91;101714.35;1754719;81;21619;-75
2020/12/17 09:19:46;;;;;;;13.15;8.60;;;;;;;4.68;67.98;101718.43;1782260;79;22837;-54
2020/12/17 09:22:15;;;;;;;16.20;9.45;;;;;;;4.72;67.90;101716.95;1767121;79;21615;-55
2020/12/17 09:24:48;;;;;;;20.25;10.43;;;;;;;4.79;67.72;101719.77;1731553;82;21377;-53
2020/12/17 09:27:28;;;;;;;19.12;11.03;;;;;;;4.83;67.64;101717.44;1739486;81;21123;-54
2020/12/17 09:30:10;;;;;;;22.67;12.58;;;;;;;4.83;67.52;101715.30;1716080;82;21233;-51
2020/12/17 09:32:41;;;;;;;18.12;10.95;;;;;;;4.82;67.47;101710.54;1733981;81;21183;-52
2020/12/17 09:35:13;;;;;;;19.50;12.03;;;;;;;4.79;67.49;101708.46;1710025;83;21151;-54
2020/12/17 09:37:44;;;;;;;19.70;13.20;;;;;;;4.77;67.49;101704.60;1725554;82;21591;-54
2020/12/17 09:40:11;;;;;;;17.40;10.35;;;;;;;4.75;67.40;101710.79;1731420;82;21663;-54
2020/12/17 09:42:39;;;;;;;17.57;11.10;;;;;;;4.70;67.54;101710.09;1712336;82;21196;-54
2020/12/17 09:45:16;;;;;;;18.92;10.58;;;;;;;4.67;67.38;101707.59;1738067;80;21124;-54
2020/12/17 09:47:44;;;;;;;18.73;10.65;;;;;;;4.62;67.55;101707.31;1735768;82;21105;-52
2020/12/17 09:50:17;;;;;;;18.10;11.35;;;;;;;4.59;67.56;101708.70;1741186;80;21213;-52
2020/12/17 09:52:45;;;;;;;15.32;9.23;;;;;;;4.61;67.57;101706.89;1738540;80;21123;-53
2020/12/17 09:55:13;;;;;;;16.05;10.55;;;;;;;4.74;67.35;101707.34;1716296;82;21605;-55
2020/12/17 10:00:21;;;;;;;17.98;11.45;;;;;;;4.96;66.97;101708.74;1874090;76;22667;-54
2020/12/17 10:02:50;;;;;;;19.65;11.35;;;;;;;4.94;66.87;101713.59;1833556;75;22010;-54
2020/12/17 10:05:20;;;;;;;21.35;11.48;;;;;;;4.92;66.85;101714.11;1839824;77;21203;-54
2020/12/17 10:07:49;;;;;;;22.40;11.60;;;;;;;4.90;66.93;101706.34;1782059;80;21215;-54
2020/12/17 10:10:18;;;;;;;18.95;11.20;;;;;;;4.93;66.98;101704.09;1809532;78;22159;-54
2020/12/17 10:12:46;;;;;;;20.77;10.03;;;;;;;4.95;66.88;101708.33;1806116;78;21579;-54
2020/12/17 10:15:15;;;;;;;20.17;11.53;;;;;;;4.92;67.00;101709.73;1807616;78;21195;-55
2020/12/17 10:17:43;;;;;;;19.90;11.05;;;;;;;4.90;66.98;101706.80;1810475;78;21312;-54
2020/12/17 10:20:12;;;;;;;17.57;10.95;;;;;;;4.84;66.90;101698.29;1817332;78;21171;-55
2020/12/17 10:22:42;;;;;;;24.25;12.05;;;;;;;4.81;66.94;101705.38;1807526;78;21140;-55
2020/12/17 10:25:11;;;;;;;19.62;11.80;;;;;;;4.82;66.99;101708.36;1808917;77;21642;-55
2020/12/17 10:27:39;;;;;;;18.27;11.48;;;;;;;4.94;66.77;101701.86;1808026;77;21202;-55
2020/12/17 10:30:07;;;;;;;21.48;12.45;;;;;;;5.02;66.72;101702.45;1812019;77;21353;-55
2020/12/17 10:32:37;;;;;;;20.45;11.20;;;;;;;5.07;66.61;101695.77;1781364;78;21754;-55
2020/12/17 10:35:06;;;;;;;18.80;11.65;;;;;;;5.09;66.75;101696.55;1807057;78;21160;-55
2020/12/17 10:37:34;;;;;;;21.82;12.40;;;;;;;5.08;66.80;101699.62;1783937;78;21190;-54
2020/12/17 10:40:02;;;;;;;22.35;11.80;;;;;;;5.06;66.70;101700.58;1806105;78;21157;-55
2020/12/17 10:42:30;;;;;;;23.00;13.70;;;;;;;5.02;66.49;101700.68;1804239;78;22209;-54
2020/12/17 10:44:57;;;;;;;21.45;13.30;;;;;;;4.98;66.46;101700.41;1787134;78;21389;-54
2020/12/17 10:47:25;;;;;;;20.23;12.75;;;;;;;4.95;66.52;101700.97;1808674;78;21164;-54
2020/12/17 10:49:53;;;;;;;23.47;13.28;;;;;;;4.90;66.57;101698.52;1811569;78;21164;-55
2020/12/17 10:52:21;;;;;;;21.62;14.25;;;;;;;4.84;66.72;101697.42;1809432;77;21112;-54
2020/12/17 10:54:49;;;;;;;25.05;13.45;;;;;;;4.81;66.77;101698.39;1807929;78;21206;-55
2020/12/17 10:57:19;;;;;;;22.05;12.60;;;;;;;4.84;66.65;101698.29;1807736;78;21172;-55
2020/12/17 10:59:48;;;;;;;20.30;13.00;;;;;;;4.97;66.53;101700.45;1783921;78;22456;-55
2020/12/17 11:02:16;;;;;;;19.92;13.65;;;;;;;5.08;66.36;101702.66;1805682;78;21172;-54
2020/12/17 11:04:44;;;;;;;27.22;13.80;;;;;;;5.14;66.16;101708.52;1803904;78;21177;-54
2020/12/17 11:07:12;;;;;;;29.10;13.88;;;;;;;5.15;66.23;101714.15;1802282;78;21190;-54
2020/12/17 11:09:40;;;;;;;20.95;13.48;;;;;;;5.17;66.31;101714.09;1779964;80;21933;-55
2020/12/17 11:12:09;;;;;;;20.75;11.48;;;;;;;5.15;66.23;101710.23;1806347;78;21162;-53
2020/12/17 11:14:38;;;;;;;22.82;13.38;;;;;;;5.12;66.26;101714.25;1808381;78;21184;-54
2020/12/17 11:17:06;;;;;;;20.75;13.32;;;;;;;5.08;66.52;101708.76;1806763;78;21153;-53
2020/12/17 11:19:34;;;;;;;23.05;12.37;;;;;;;5.07;66.57;101714.03;1786453;78;21206;-54
2020/12/17 11:22:03;;;;;;;23.77;13.15;;;;;;;5.03;66.50;101710.22;1790482;79;21128;-54
2020/12/17 11:24:31;;;;;;;22.20;11.12;;;;;;;5.01;66.60;101709.43;1782966;78;21519;-55
2020/12/17 11:26:59;;;;;;;22.82;13.05;;;;;;;4.98;66.55;101712.60;1785254;78;21563;-55
2020/12/17 11:29:27;;;;;;;26.23;14.05;;;;;;;5.00;66.47;101710.32;1785182;79;21156;-53
2020/12/17 11:31:59;;;;;;;23.90;14.10;;;;;;;5.10;66.21;101715.23;1783622;78;21209;-53
2020/12/17 11:34:28;;;;;;;23.85;14.10;;;;;;;5.14;66.17;101717.66;1778800;79;21179;-54
2020/12/17 11:36:55;;;;;;;26.30;16.25;;;;;;;5.19;66.13;101720.10;1777165;79;21569;-54
2020/12/17 11:39:23;;;;;;;26.40;14.75;;;;;;;5.20;66.21;101721.81;1782069;79;21158;-53
2020/12/17 11:41:52;;;;;;;27.45;14.70;;;;;;;5.21;66.27;101722.20;1782984;79;21114;-54
2020/12/17 11:44:19;;;;;;;22.95;14.85;;;;;;;5.19;66.20;101721.41;1802434;78;22106;-53
2020/12/17 11:46:47;;;;;;;29.77;16.30;;;;;;;5.17;66.21;101721.92;1768212;80;21187;-54
2020/12/17 11:49:15;;;;;;;25.45;15.10;;;;;;;5.14;66.24;101721.56;1779527;78;21199;-53
2020/12/17 11:51:43;;;;;;;25.40;13.72;;;;;;;5.11;66.39;101715.61;1783456;78;21164;-54
2020/12/17 11:54:11;;;;;;;28.38;14.63;;;;;;;5.11;66.65;101716.91;1809641;77;21080;-59
2020/12/17 11:56:38;;;;;;;24.77;12.82;;;;;;;5.11;66.65;101716.91;1804261;78;21675;-53
2020/12/17 11:59:06;;;;;;;21.25;12.93;;;;;;;5.08;66.59;101717.02;1783562;78;21631;-61
2020/12/17 12:01:33;;;;;;;24.30;14.10;;;;;;;5.13;66.52;101713.36;1809313;77;21117;-61
2020/12/17 12:04:01;;;;;;;26.57;14.53;;;;;;;5.25;65.98;101718.59;1808611;77;21819;-61
2020/12/17 12:06:28;;;;;;;24.72;13.95;;;;;;;5.30;65.76;101724.48;1779896;79;21623;-62
2020/12/17 12:08:56;;;;;;;22.17;14.68;;;;;;;5.31;65.74;101725.33;1772055;79;21172;-62
2020/12/17 12:11:25;;;;;;;29.32;14.58;;;;;;;5.27;65.86;101726.36;1773322;79;21181;-62
2020/12/17 12:13:53;;;;;;;23.62;15.50;;;;;;;5.26;66.09;101721.61;1808325;78;21211;-60